sensor_id;sensor_type;location;lat;lon;timestamp;P1;durP1;ratioP1;P2;durP2;ratioP2
65045;SDS011;54657;52.022;5.534;2024-01-30T00:01:44;8.75;;;7.20;;
65045;SDS011;54657;52.022;5.534;2024-01-30T00:04:09;10.88;;;6.95;;
65045;SDS011;54657;52.022;5.534;2024-01-30T00:06:35;8.23;;;7.05;;
65045;SDS011;54657;52.022;5.534;2024-01-30T00:09:00;9.02;;;7.28;;
65045;SDS011;54657;52.022;5.534;2024-01-30T00:11:26;8.93;;;6.70;;
65045;SDS011;54657;52.022;5.534;2024-01-30T00:13:52;8.35;;;6.57;;
65045;SDS011;54657;52.022;5.534;2024-01-30T00:16:21;9.57;;;6.60;;
65045;SDS011;54657;52.022;5.534;2024-01-30T00:18:47;7.95;;;6.57;;
65045;SDS011;54657;52.022;5.534;2024-01-30T00:21:13;9.55;;;6.82;;
65045;SDS011;54657;52.022;5.534;2024-01-30T00:23:39;8.85;;;6.55;;
65045;SDS011;54657;52.022;5.534;2024-01-30T00:26:04;12.85;;;7.68;;
65045;SDS011;54657;52.022;5.534;2024-01-30T00:28:30;9.55;;;6.65;;
65045;SDS011;54657;52.022;5.534;2024-01-30T00:30:56;8.63;;;6.68;;
65045;SDS011;54657;52.022;5.534;2024-01-30T00:33:21;9.25;;;6.65;;
65045;SDS011;54657;52.022;5.534;2024-01-30T00:35:47;8.85;;;6.38;;
65045;SDS011;54657;52.022;5.534;2024-01-30T00:38:12;8.40;;;6.70;;
65045;SDS011;54657;52.022;5.534;2024-01-30T00:40:38;8.57;;;7.25;;
65045;SDS011;54657;52.022;5.534;2024-01-30T00:43:04;11.32;;;6.80;;
65045;SDS011;54657;52.022;5.534;2024-01-30T00:45:29;10.43;;;7.13;;
65045;SDS011;54657;52.022;5.534;2024-01-30T00:47:55;10.63;;;7.25;;
65045;SDS011;54657;52.022;5.534;2024-01-30T00:50:20;9.98;;;6.57;;
65045;SDS011;54657;52.022;5.534;2024-01-30T00:52:46;8.25;;;6.70;;
65045;SDS011;54657;52.022;5.534;2024-01-30T00:55:11;9.63;;;7.00;;
65045;SDS011;54657;52.022;5.534;2024-01-30T00:57:37;8.38;;;7.35;;
65045;SDS011;54657;52.022;5.534;2024-01-30T01:00:03;8.38;;;6.90;;
65045;SDS011;54657;52.022;5.534;2024-01-30T01:02:31;10.88;;;7.30;;
65045;SDS011;54657;52.022;5.534;2024-01-30T01:04:56;6.85;;;6.13;;
65045;SDS011;54657;52.022;5.534;2024-01-30T01:07:22;10.30;;;6.88;;
65045;SDS011;54657;52.022;5.534;2024-01-30T01:09:48;8.55;;;6.22;;
65045;SDS011;54657;52.022;5.534;2024-01-30T01:12:13;9.65;;;6.78;;
65045;SDS011;54657;52.022;5.534;2024-01-30T01:14:39;9.10;;;7.15;;
65045;SDS011;54657;52.022;5.534;2024-01-30T01:17:04;12.80;;;8.20;;
65045;SDS011;54657;52.022;5.534;2024-01-30T01:19:30;11.57;;;7.55;;
65045;SDS011;54657;52.022;5.534;2024-01-30T01:21:55;8.60;;;7.10;;
65045;SDS011;54657;52.022;5.534;2024-01-30T01:24:21;10.95;;;7.85;;
65045;SDS011;54657;52.022;5.534;2024-01-30T01:26:47;11.90;;;7.63;;
65045;SDS011;54657;52.022;5.534;2024-01-30T01:29:12;8.30;;;7.05;;
65045;SDS011;54657;52.022;5.534;2024-01-30T01:31:38;12.40;;;7.40;;
65045;SDS011;54657;52.022;5.534;2024-01-30T01:34:10;9.52;;;7.68;;
65045;SDS011;54657;52.022;5.534;2024-01-30T01:36:37;9.27;;;7.53;;
65045;SDS011;54657;52.022;5.534;2024-01-30T01:39:02;8.63;;;7.03;;
65045;SDS011;54657;52.022;5.534;2024-01-30T01:41:34;9.35;;;7.00;;
65045;SDS011;54657;52.022;5.534;2024-01-30T01:44:00;7.93;;;6.97;;
65045;SDS011;54657;52.022;5.534;2024-01-30T01:46:26;8.35;;;7.28;;
65045;SDS011;54657;52.022;5.534;2024-01-30T01:48:54;11.75;;;6.90;;
65045;SDS011;54657;52.022;5.534;2024-01-30T01:51:21;7.80;;;6.22;;
65045;SDS011;54657;52.022;5.534;2024-01-30T01:53:47;10.50;;;7.00;;
65045;SDS011;54657;52.022;5.534;2024-01-30T01:56:13;8.20;;;6.47;;
65045;SDS011;54657;52.022;5.534;2024-01-30T01:58:40;11.68;;;6.68;;
65045;SDS011;54657;52.022;5.534;2024-01-30T02:01:06;9.60;;;7.07;;
65045;SDS011;54657;52.022;5.534;2024-01-30T02:03:33;8.05;;;6.57;;
65045;SDS011;54657;52.022;5.534;2024-01-30T02:05:59;8.48;;;6.38;;
65045;SDS011;54657;52.022;5.534;2024-01-30T02:08:27;8.55;;;6.85;;
65045;SDS011;54657;52.022;5.534;2024-01-30T02:10:53;7.38;;;6.25;;
65045;SDS011;54657;52.022;5.534;2024-01-30T02:13:18;9.45;;;6.45;;
65045;SDS011;54657;52.022;5.534;2024-01-30T02:15:48;10.27;;;7.55;;
65045;SDS011;54657;52.022;5.534;2024-01-30T02:18:16;12.88;;;6.57;;
65045;SDS011;54657;52.022;5.534;2024-01-30T02:20:42;8.00;;;6.55;;
65045;SDS011;54657;52.022;5.534;2024-01-30T02:23:09;9.00;;;7.30;;
65045;SDS011;54657;52.022;5.534;2024-01-30T02:25:41;10.45;;;6.78;;
65045;SDS011;54657;52.022;5.534;2024-01-30T02:28:14;11.95;;;7.45;;
65045;SDS011;54657;52.022;5.534;2024-01-30T02:30:39;10.85;;;7.03;;
65045;SDS011;54657;52.022;5.534;2024-01-30T02:33:05;9.73;;;7.20;;
65045;SDS011;54657;52.022;5.534;2024-01-30T02:35:31;10.43;;;6.60;;
65045;SDS011;54657;52.022;5.534;2024-01-30T02:37:57;8.65;;;7.32;;
65045;SDS011;54657;52.022;5.534;2024-01-30T02:40:22;7.90;;;6.80;;
65045;SDS011;54657;52.022;5.534;2024-01-30T02:42:48;10.38;;;7.10;;
65045;SDS011;54657;52.022;5.534;2024-01-30T02:45:13;7.63;;;6.47;;
65045;SDS011;54657;52.022;5.534;2024-01-30T02:47:39;10.27;;;7.15;;
65045;SDS011;54657;52.022;5.534;2024-01-30T02:50:05;11.45;;;6.90;;
65045;SDS011;54657;52.022;5.534;2024-01-30T02:52:31;9.18;;;6.72;;
65045;SDS011;54657;52.022;5.534;2024-01-30T02:54:57;11.25;;;6.68;;
65045;SDS011;54657;52.022;5.534;2024-01-30T02:57:23;9.65;;;7.20;;
65045;SDS011;54657;52.022;5.534;2024-01-30T02:59:48;7.53;;;6.72;;
65045;SDS011;54657;52.022;5.534;2024-01-30T03:02:14;9.88;;;7.47;;
65045;SDS011;54657;52.022;5.534;2024-01-30T03:04:42;9.82;;;7.10;;
65045;SDS011;54657;52.022;5.534;2024-01-30T03:07:08;12.23;;;7.32;;
65045;SDS011;54657;52.022;5.534;2024-01-30T03:09:34;11.00;;;7.03;;
65045;SDS011;54657;52.022;5.534;2024-01-30T03:12:00;10.75;;;6.90;;
65045;SDS011;54657;52.022;5.534;2024-01-30T03:14:26;9.93;;;7.70;;
65045;SDS011;54657;52.022;5.534;2024-01-30T03:16:51;8.13;;;6.60;;
65045;SDS011;54657;52.022;5.534;2024-01-30T03:19:17;8.35;;;7.10;;
65045;SDS011;54657;52.022;5.534;2024-01-30T03:21:43;9.80;;;7.22;;
65045;SDS011;54657;52.022;5.534;2024-01-30T03:24:09;9.07;;;6.90;;
65045;SDS011;54657;52.022;5.534;2024-01-30T03:26:34;10.85;;;7.55;;
65045;SDS011;54657;52.022;5.534;2024-01-30T03:29:00;10.13;;;7.10;;
65045;SDS011;54657;52.022;5.534;2024-01-30T03:31:26;13.80;;;7.70;;
65045;SDS011;54657;52.022;5.534;2024-01-30T03:33:52;11.23;;;7.35;;
65045;SDS011;54657;52.022;5.534;2024-01-30T03:36:17;11.30;;;7.78;;
65045;SDS011;54657;52.022;5.534;2024-01-30T03:38:43;11.15;;;7.38;;
65045;SDS011;54657;52.022;5.534;2024-01-30T03:41:08;9.43;;;6.85;;
65045;SDS011;54657;52.022;5.534;2024-01-30T03:43:35;9.00;;;7.18;;
65045;SDS011;54657;52.022;5.534;2024-01-30T03:46:01;11.20;;;7.70;;
65045;SDS011;54657;52.022;5.534;2024-01-30T03:48:27;12.48;;;8.10;;
65045;SDS011;54657;52.022;5.534;2024-01-30T03:50:53;11.57;;;7.22;;
65045;SDS011;54657;52.022;5.534;2024-01-30T03:53:18;9.90;;;7.03;;
65045;SDS011;54657;52.022;5.534;2024-01-30T03:55:44;7.90;;;6.90;;
65045;SDS011;54657;52.022;5.534;2024-01-30T03:58:09;9.13;;;7.45;;
65045;SDS011;54657;52.022;5.534;2024-01-30T04:00:35;10.52;;;7.38;;
65045;SDS011;54657;52.022;5.534;2024-01-30T04:03:01;8.30;;;6.50;;
65045;SDS011;54657;52.022;5.534;2024-01-30T04:05:26;8.95;;;7.22;;
65045;SDS011;54657;52.022;5.534;2024-01-30T04:07:52;11.32;;;6.85;;
65045;SDS011;54657;52.022;5.534;2024-01-30T04:10:17;9.05;;;6.78;;
65045;SDS011;54657;52.022;5.534;2024-01-30T04:12:43;10.98;;;7.18;;
65045;SDS011;54657;52.022;5.534;2024-01-30T04:15:08;7.53;;;6.45;;
65045;SDS011;54657;52.022;5.534;2024-01-30T04:17:34;8.50;;;6.90;;
65045;SDS011;54657;52.022;5.534;2024-01-30T04:19:59;10.52;;;6.53;;
65045;SDS011;54657;52.022;5.534;2024-01-30T04:22:25;9.80;;;6.70;;
65045;SDS011;54657;52.022;5.534;2024-01-30T04:24:51;10.13;;;6.78;;
65045;SDS011;54657;52.022;5.534;2024-01-30T04:27:16;8.15;;;6.40;;
65045;SDS011;54657;52.022;5.534;2024-01-30T04:29:42;8.13;;;5.50;;
65045;SDS011;54657;52.022;5.534;2024-01-30T04:32:07;8.90;;;6.05;;
65045;SDS011;54657;52.022;5.534;2024-01-30T04:34:34;5.88;;;5.13;;
65045;SDS011;54657;52.022;5.534;2024-01-30T04:37:01;8.48;;;6.13;;
65045;SDS011;54657;52.022;5.534;2024-01-30T04:39:26;7.45;;;5.68;;
65045;SDS011;54657;52.022;5.534;2024-01-30T04:41:52;8.30;;;5.72;;
65045;SDS011;54657;52.022;5.534;2024-01-30T04:44:17;8.10;;;6.60;;
65045;SDS011;54657;52.022;5.534;2024-01-30T04:46:43;9.65;;;6.05;;
65045;SDS011;54657;52.022;5.534;2024-01-30T04:49:08;9.52;;;6.57;;
65045;SDS011;54657;52.022;5.534;2024-01-30T04:51:34;10.88;;;7.13;;
65045;SDS011;54657;52.022;5.534;2024-01-30T04:53:59;8.93;;;6.55;;
65045;SDS011;54657;52.022;5.534;2024-01-30T04:56:25;7.47;;;6.50;;
65045;SDS011;54657;52.022;5.534;2024-01-30T04:58:50;7.07;;;6.30;;
65045;SDS011;54657;52.022;5.534;2024-01-30T05:01:16;9.25;;;7.15;;
65045;SDS011;54657;52.022;5.534;2024-01-30T05:03:42;10.30;;;6.93;;
65045;SDS011;54657;52.022;5.534;2024-01-30T05:06:08;9.60;;;6.45;;
65045;SDS011;54657;52.022;5.534;2024-01-30T05:08:33;10.32;;;6.78;;
65045;SDS011;54657;52.022;5.534;2024-01-30T05:11:01;7.32;;;5.80;;
65045;SDS011;54657;52.022;5.534;2024-01-30T05:13:29;8.90;;;6.65;;
65045;SDS011;54657;52.022;5.534;2024-01-30T05:15:58;7.97;;;6.45;;
65045;SDS011;54657;52.022;5.534;2024-01-30T05:18:24;8.05;;;6.43;;
65045;SDS011;54657;52.022;5.534;2024-01-30T05:20:50;9.80;;;6.13;;
65045;SDS011;54657;52.022;5.534;2024-01-30T05:23:15;9.15;;;5.43;;
65045;SDS011;54657;52.022;5.534;2024-01-30T05:25:41;6.45;;;5.53;;
65045;SDS011;54657;52.022;5.534;2024-01-30T05:28:07;6.85;;;5.40;;
65045;SDS011;54657;52.022;5.534;2024-01-30T05:30:32;6.70;;;5.72;;
65045;SDS011;54657;52.022;5.534;2024-01-30T05:32:58;6.57;;;5.28;;
65045;SDS011;54657;52.022;5.534;2024-01-30T05:35:23;8.35;;;5.45;;
65045;SDS011;54657;52.022;5.534;2024-01-30T05:37:49;8.85;;;6.00;;
65045;SDS011;54657;52.022;5.534;2024-01-30T05:40:15;9.45;;;5.63;;
65045;SDS011;54657;52.022;5.534;2024-01-30T05:42:41;8.50;;;6.10;;
65045;SDS011;54657;52.022;5.534;2024-01-30T05:45:06;7.50;;;5.80;;
65045;SDS011;54657;52.022;5.534;2024-01-30T05:47:33;13.68;;;6.90;;
65045;SDS011;54657;52.022;5.534;2024-01-30T05:49:59;7.65;;;6.22;;
65045;SDS011;54657;52.022;5.534;2024-01-30T05:52:24;8.13;;;5.75;;
65045;SDS011;54657;52.022;5.534;2024-01-30T05:54:50;8.48;;;5.82;;
65045;SDS011;54657;52.022;5.534;2024-01-30T05:57:16;8.82;;;6.00;;
65045;SDS011;54657;52.022;5.534;2024-01-30T05:59:41;7.13;;;5.43;;
65045;SDS011;54657;52.022;5.534;2024-01-30T06:02:09;7.03;;;5.45;;
65045;SDS011;54657;52.022;5.534;2024-01-30T06:04:35;6.03;;;5.15;;
65045;SDS011;54657;52.022;5.534;2024-01-30T06:07:01;9.25;;;5.07;;
65045;SDS011;54657;52.022;5.534;2024-01-30T06:09:27;9.05;;;5.43;;
65045;SDS011;54657;52.022;5.534;2024-01-30T06:11:54;9.90;;;6.00;;
65045;SDS011;54657;52.022;5.534;2024-01-30T06:14:19;7.95;;;5.40;;
65045;SDS011;54657;52.022;5.534;2024-01-30T06:16:45;8.52;;;5.32;;
65045;SDS011;54657;52.022;5.534;2024-01-30T06:19:11;7.95;;;5.10;;
65045;SDS011;54657;52.022;5.534;2024-01-30T06:21:36;10.02;;;5.50;;
65045;SDS011;54657;52.022;5.534;2024-01-30T06:24:03;8.10;;;5.57;;
65045;SDS011;54657;52.022;5.534;2024-01-30T06:26:29;7.75;;;4.93;;
65045;SDS011;54657;52.022;5.534;2024-01-30T06:28:54;9.13;;;5.40;;
65045;SDS011;54657;52.022;5.534;2024-01-30T06:31:20;7.18;;;5.25;;
65045;SDS011;54657;52.022;5.534;2024-01-30T06:33:49;6.60;;;5.25;;
65045;SDS011;54657;52.022;5.534;2024-01-30T06:36:15;6.47;;;4.82;;
65045;SDS011;54657;52.022;5.534;2024-01-30T06:38:41;11.05;;;5.35;;
65045;SDS011;54657;52.022;5.534;2024-01-30T06:41:06;5.70;;;5.15;;
65045;SDS011;54657;52.022;5.534;2024-01-30T06:43:32;7.53;;;5.28;;
65045;SDS011;54657;52.022;5.534;2024-01-30T06:45:58;6.95;;;4.85;;
65045;SDS011;54657;52.022;5.534;2024-01-30T06:48:24;7.22;;;5.07;;
65045;SDS011;54657;52.022;5.534;2024-01-30T06:50:50;7.15;;;5.32;;
65045;SDS011;54657;52.022;5.534;2024-01-30T06:53:18;7.82;;;4.78;;
65045;SDS011;54657;52.022;5.534;2024-01-30T06:55:44;7.15;;;5.15;;
65045;SDS011;54657;52.022;5.534;2024-01-30T06:58:10;8.32;;;5.30;;
65045;SDS011;54657;52.022;5.534;2024-01-30T07:00:35;11.25;;;5.32;;
65045;SDS011;54657;52.022;5.534;2024-01-30T07:03:01;7.85;;;4.90;;
65045;SDS011;54657;52.022;5.534;2024-01-30T07:05:26;7.53;;;5.63;;
65045;SDS011;54657;52.022;5.534;2024-01-30T07:07:52;6.32;;;4.68;;
65045;SDS011;54657;52.022;5.534;2024-01-30T07:10:18;8.25;;;5.15;;
65045;SDS011;54657;52.022;5.534;2024-01-30T07:12:44;7.57;;;4.72;;
65045;SDS011;54657;52.022;5.534;2024-01-30T07:15:09;6.38;;;5.05;;
65045;SDS011;54657;52.022;5.534;2024-01-30T07:17:35;6.57;;;5.10;;
65045;SDS011;54657;52.022;5.534;2024-01-30T07:20:01;6.20;;;4.93;;
65045;SDS011;54657;52.022;5.534;2024-01-30T07:22:30;6.38;;;5.32;;
65045;SDS011;54657;52.022;5.534;2024-01-30T07:24:56;8.18;;;5.82;;
65045;SDS011;54657;52.022;5.534;2024-01-30T07:27:21;7.43;;;5.25;;
65045;SDS011;54657;52.022;5.534;2024-01-30T07:29:47;6.10;;;4.50;;
65045;SDS011;54657;52.022;5.534;2024-01-30T07:32:12;7.38;;;5.38;;
65045;SDS011;54657;52.022;5.534;2024-01-30T07:34:38;7.07;;;5.18;;
65045;SDS011;54657;52.022;5.534;2024-01-30T07:37:03;7.88;;;5.60;;
65045;SDS011;54657;52.022;5.534;2024-01-30T07:39:29;7.18;;;5.53;;
65045;SDS011;54657;52.022;5.534;2024-01-30T07:41:54;6.45;;;4.75;;
65045;SDS011;54657;52.022;5.534;2024-01-30T07:44:20;8.18;;;5.32;;
65045;SDS011;54657;52.022;5.534;2024-01-30T07:46:47;7.35;;;5.45;;
65045;SDS011;54657;52.022;5.534;2024-01-30T07:49:12;6.50;;;4.80;;
65045;SDS011;54657;52.022;5.534;2024-01-30T07:51:39;6.47;;;5.45;;
65045;SDS011;54657;52.022;5.534;2024-01-30T07:54:14;7.53;;;4.85;;
65045;SDS011;54657;52.022;5.534;2024-01-30T07:56:39;7.45;;;5.72;;
65045;SDS011;54657;52.022;5.534;2024-01-30T07:59:05;7.50;;;4.93;;
65045;SDS011;54657;52.022;5.534;2024-01-30T08:01:34;9.48;;;5.60;;
65045;SDS011;54657;52.022;5.534;2024-01-30T08:04:00;6.63;;;5.25;;
65045;SDS011;54657;52.022;5.534;2024-01-30T08:06:25;6.68;;;5.15;;
65045;SDS011;54657;52.022;5.534;2024-01-30T08:08:51;6.85;;;4.78;;
65045;SDS011;54657;52.022;5.534;2024-01-30T08:11:19;7.50;;;5.75;;
65045;SDS011;54657;52.022;5.534;2024-01-30T08:13:45;6.30;;;5.07;;
65045;SDS011;54657;52.022;5.534;2024-01-30T08:16:11;7.05;;;5.00;;
65045;SDS011;54657;52.022;5.534;2024-01-30T08:18:36;7.38;;;5.05;;
65045;SDS011;54657;52.022;5.534;2024-01-30T08:21:02;9.10;;;5.25;;
65045;SDS011;54657;52.022;5.534;2024-01-30T08:23:28;7.85;;;5.35;;
65045;SDS011;54657;52.022;5.534;2024-01-30T08:25:53;8.75;;;5.82;;
65045;SDS011;54657;52.022;5.534;2024-01-30T08:28:19;7.25;;;5.50;;
65045;SDS011;54657;52.022;5.534;2024-01-30T08:30:45;10.10;;;5.55;;
65045;SDS011;54657;52.022;5.534;2024-01-30T08:33:10;7.18;;;4.90;;
65045;SDS011;54657;52.022;5.534;2024-01-30T08:35:36;6.70;;;5.18;;
65045;SDS011;54657;52.022;5.534;2024-01-30T08:38:01;7.88;;;5.50;;
65045;SDS011;54657;52.022;5.534;2024-01-30T08:40:28;9.95;;;5.15;;
65045;SDS011;54657;52.022;5.534;2024-01-30T08:42:54;6.30;;;5.03;;
65045;SDS011;54657;52.022;5.534;2024-01-30T08:45:20;11.00;;;5.55;;
65045;SDS011;54657;52.022;5.534;2024-01-30T08:47:46;8.18;;;6.00;;
65045;SDS011;54657;52.022;5.534;2024-01-30T08:50:11;6.60;;;5.50;;
65045;SDS011;54657;52.022;5.534;2024-01-30T08:52:37;8.77;;;5.90;;
65045;SDS011;54657;52.022;5.534;2024-01-30T08:55:02;8.25;;;5.53;;
65045;SDS011;54657;52.022;5.534;2024-01-30T08:57:29;6.50;;;5.22;;
65045;SDS011;54657;52.022;5.534;2024-01-30T08:59:55;9.15;;;5.68;;
65045;SDS011;54657;52.022;5.534;2024-01-30T09:02:21;7.47;;;5.57;;
65045;SDS011;54657;52.022;5.534;2024-01-30T09:04:46;8.85;;;5.05;;
65045;SDS011;54657;52.022;5.534;2024-01-30T09:07:12;9.23;;;5.60;;
65045;SDS011;54657;52.022;5.534;2024-01-30T09:09:39;8.07;;;6.15;;
65045;SDS011;54657;52.022;5.534;2024-01-30T09:12:05;9.93;;;5.82;;
65045;SDS011;54657;52.022;5.534;2024-01-30T09:14:34;8.93;;;6.10;;
65045;SDS011;54657;52.022;5.534;2024-01-30T09:17:00;9.38;;;5.55;;
65045;SDS011;54657;52.022;5.534;2024-01-30T09:19:26;9.52;;;5.55;;
65045;SDS011;54657;52.022;5.534;2024-01-30T09:21:51;10.73;;;5.70;;
65045;SDS011;54657;52.022;5.534;2024-01-30T09:24:17;8.20;;;5.90;;
65045;SDS011;54657;52.022;5.534;2024-01-30T09:26:42;9.23;;;5.38;;
65045;SDS011;54657;52.022;5.534;2024-01-30T09:29:08;7.70;;;5.50;;
65045;SDS011;54657;52.022;5.534;2024-01-30T09:31:33;7.70;;;5.60;;
65045;SDS011;54657;52.022;5.534;2024-01-30T09:33:59;8.68;;;5.20;;
65045;SDS011;54657;52.022;5.534;2024-01-30T09:36:24;6.20;;;5.30;;
65045;SDS011;54657;52.022;5.534;2024-01-30T09:38:50;7.30;;;5.63;;
65045;SDS011;54657;52.022;5.534;2024-01-30T09:41:16;11.05;;;5.53;;
65045;SDS011;54657;52.022;5.534;2024-01-30T09:43:44;10.07;;;5.63;;
65045;SDS011;54657;52.022;5.534;2024-01-30T09:46:14;12.38;;;6.43;;
65045;SDS011;54657;52.022;5.534;2024-01-30T09:48:41;10.02;;;5.72;;
65045;SDS011;54657;52.022;5.534;2024-01-30T09:51:08;9.18;;;5.88;;
65045;SDS011;54657;52.022;5.534;2024-01-30T09:53:34;9.07;;;5.68;;
65045;SDS011;54657;52.022;5.534;2024-01-30T09:56:02;11.70;;;6.45;;
65045;SDS011;54657;52.022;5.534;2024-01-30T09:58:29;8.90;;;6.20;;
65045;SDS011;54657;52.022;5.534;2024-01-30T10:00:54;10.07;;;5.38;;
65045;SDS011;54657;52.022;5.534;2024-01-30T10:03:20;13.45;;;6.05;;
65045;SDS011;54657;52.022;5.534;2024-01-30T10:05:50;8.15;;;5.50;;
65045;SDS011;54657;52.022;5.534;2024-01-30T10:08:19;8.73;;;5.78;;
65045;SDS011;54657;52.022;5.534;2024-01-30T10:10:46;8.75;;;5.60;;
65045;SDS011;54657;52.022;5.534;2024-01-30T10:13:12;10.80;;;5.85;;
65045;SDS011;54657;52.022;5.534;2024-01-30T10:15:37;9.05;;;5.97;;
65045;SDS011;54657;52.022;5.534;2024-01-30T10:18:04;9.27;;;5.45;;
65045;SDS011;54657;52.022;5.534;2024-01-30T10:20:31;9.80;;;5.70;;
65045;SDS011;54657;52.022;5.534;2024-01-30T10:22:57;8.77;;;5.35;;
65045;SDS011;54657;52.022;5.534;2024-01-30T10:25:23;9.15;;;6.10;;
65045;SDS011;54657;52.022;5.534;2024-01-30T10:27:54;9.98;;;5.38;;
65045;SDS011;54657;52.022;5.534;2024-01-30T10:30:21;10.23;;;5.68;;
65045;SDS011;54657;52.022;5.534;2024-01-30T10:32:47;10.95;;;4.93;;
65045;SDS011;54657;52.022;5.534;2024-01-30T10:35:13;9.70;;;5.40;;
65045;SDS011;54657;52.022;5.534;2024-01-30T10:37:39;8.40;;;4.82;;
65045;SDS011;54657;52.022;5.534;2024-01-30T10:40:08;8.45;;;6.20;;
65045;SDS011;54657;52.022;5.534;2024-01-30T10:42:36;8.85;;;4.80;;
65045;SDS011;54657;52.022;5.534;2024-01-30T10:45:06;9.88;;;5.95;;
65045;SDS011;54657;52.022;5.534;2024-01-30T10:47:37;6.65;;;5.00;;
65045;SDS011;54657;52.022;5.534;2024-01-30T10:50:14;8.13;;;4.82;;
65045;SDS011;54657;52.022;5.534;2024-01-30T10:52:40;9.52;;;5.45;;
65045;SDS011;54657;52.022;5.534;2024-01-30T10:55:07;7.88;;;5.35;;
65045;SDS011;54657;52.022;5.534;2024-01-30T10:57:36;7.35;;;5.50;;
65045;SDS011;54657;52.022;5.534;2024-01-30T11:00:12;10.75;;;6.43;;
65045;SDS011;54657;52.022;5.534;2024-01-30T11:02:44;8.13;;;5.28;;
65045;SDS011;54657;52.022;5.534;2024-01-30T11:05:11;6.95;;;4.60;;
65045;SDS011;54657;52.022;5.534;2024-01-30T11:07:38;7.32;;;5.50;;
65045;SDS011;54657;52.022;5.534;2024-01-30T11:10:06;10.85;;;6.65;;
65045;SDS011;54657;52.022;5.534;2024-01-30T11:12:37;11.52;;;8.57;;
65045;SDS011;54657;52.022;5.534;2024-01-30T11:15:06;10.17;;;7.77;;
65045;SDS011;54657;52.022;5.534;2024-01-30T11:20:15;9.70;;;4.20;;
65045;SDS011;54657;52.022;5.534;2024-01-30T11:22:47;7.25;;;4.22;;
65045;SDS011;54657;52.022;5.534;2024-01-30T11:25:16;8.77;;;4.38;;
65045;SDS011;54657;52.022;5.534;2024-01-30T11:27:43;7.93;;;4.13;;
65045;SDS011;54657;52.022;5.534;2024-01-30T11:30:09;7.78;;;5.10;;
65045;SDS011;54657;52.022;5.534;2024-01-30T11:32:35;8.05;;;4.68;;
65045;SDS011;54657;52.022;5.534;2024-01-30T11:35:05;5.70;;;3.50;;
65045;SDS011;54657;52.022;5.534;2024-01-30T11:37:31;6.95;;;4.85;;
65045;SDS011;54657;52.022;5.534;2024-01-30T11:39:57;8.95;;;6.68;;
65045;SDS011;54657;52.022;5.534;2024-01-30T11:42:23;8.18;;;3.97;;
65045;SDS011;54657;52.022;5.534;2024-01-30T11:44:53;5.07;;;3.30;;
65045;SDS011;54657;52.022;5.534;2024-01-30T11:47:19;6.28;;;3.28;;
65045;SDS011;54657;52.022;5.534;2024-01-30T11:49:44;4.53;;;2.60;;
65045;SDS011;54657;52.022;5.534;2024-01-30T11:52:10;4.93;;;2.38;;
65045;SDS011;54657;52.022;5.534;2024-01-30T11:54:36;6.88;;;2.70;;
65045;SDS011;54657;52.022;5.534;2024-01-30T11:57:04;3.80;;;2.83;;
65045;SDS011;54657;52.022;5.534;2024-01-30T11:59:30;6.28;;;2.60;;
65045;SDS011;54657;52.022;5.534;2024-01-30T12:01:56;3.75;;;2.50;;
65045;SDS011;54657;52.022;5.534;2024-01-30T12:04:21;7.05;;;2.85;;
65045;SDS011;54657;52.022;5.534;2024-01-30T12:06:50;7.00;;;2.88;;
65045;SDS011;54657;52.022;5.534;2024-01-30T12:09:16;7.90;;;3.30;;
65045;SDS011;54657;52.022;5.534;2024-01-30T12:11:45;3.30;;;2.70;;
65045;SDS011;54657;52.022;5.534;2024-01-30T12:14:12;4.25;;;1.83;;
65045;SDS011;54657;52.022;5.534;2024-01-30T12:16:38;2.72;;;1.52;;
65045;SDS011;54657;52.022;5.534;2024-01-30T12:19:03;4.22;;;1.63;;
65045;SDS011;54657;52.022;5.534;2024-01-30T12:21:29;4.13;;;1.25;;
65045;SDS011;54657;52.022;5.534;2024-01-30T12:23:56;3.30;;;1.70;;
65045;SDS011;54657;52.022;5.534;2024-01-30T12:26:23;5.05;;;1.35;;
65045;SDS011;54657;52.022;5.534;2024-01-30T12:28:50;3.42;;;1.73;;
65045;SDS011;54657;52.022;5.534;2024-01-30T12:31:24;4.47;;;1.65;;
65045;SDS011;54657;52.022;5.534;2024-01-30T12:33:51;4.65;;;1.58;;
65045;SDS011;54657;52.022;5.534;2024-01-30T12:36:17;5.03;;;1.92;;
65045;SDS011;54657;52.022;5.534;2024-01-30T12:38:43;3.35;;;1.60;;
65045;SDS011;54657;52.022;5.534;2024-01-30T12:41:08;2.35;;;1.75;;
65045;SDS011;54657;52.022;5.534;2024-01-30T12:43:35;3.58;;;1.52;;
65045;SDS011;54657;52.022;5.534;2024-01-30T12:46:01;3.35;;;1.92;;
65045;SDS011;54657;52.022;5.534;2024-01-30T12:48:27;2.78;;;1.73;;
65045;SDS011;54657;52.022;5.534;2024-01-30T12:50:54;8.40;;;2.15;;
65045;SDS011;54657;52.022;5.534;2024-01-30T12:53:21;7.00;;;2.30;;
65045;SDS011;54657;52.022;5.534;2024-01-30T12:55:46;4.85;;;2.40;;
65045;SDS011;54657;52.022;5.534;2024-01-30T12:58:12;6.90;;;2.10;;
65045;SDS011;54657;52.022;5.534;2024-01-30T13:00:38;11.13;;;1.83;;
65045;SDS011;54657;52.022;5.534;2024-01-30T13:03:03;5.78;;;1.83;;
65045;SDS011;54657;52.022;5.534;2024-01-30T13:05:29;4.85;;;2.20;;
65045;SDS011;54657;52.022;5.534;2024-01-30T13:07:55;4.95;;;1.75;;
65045;SDS011;54657;52.022;5.534;2024-01-30T13:10:22;5.25;;;1.73;;
65045;SDS011;54657;52.022;5.534;2024-01-30T13:12:48;3.55;;;1.65;;
65045;SDS011;54657;52.022;5.534;2024-01-30T13:15:13;4.20;;;1.45;;
65045;SDS011;54657;52.022;5.534;2024-01-30T13:17:39;7.93;;;1.90;;
65045;SDS011;54657;52.022;5.534;2024-01-30T13:20:05;4.32;;;1.67;;
65045;SDS011;54657;52.022;5.534;2024-01-30T13:22:33;5.28;;;1.90;;
65045;SDS011;54657;52.022;5.534;2024-01-30T13:24:58;4.78;;;2.15;;
65045;SDS011;54657;52.022;5.534;2024-01-30T13:27:24;6.15;;;2.22;;
65045;SDS011;54657;52.022;5.534;2024-01-30T13:29:50;4.97;;;2.47;;
65045;SDS011;54657;52.022;5.534;2024-01-30T13:32:15;5.75;;;2.30;;
65045;SDS011;54657;52.022;5.534;2024-01-30T13:34:41;5.50;;;2.20;;
65045;SDS011;54657;52.022;5.534;2024-01-30T13:37:08;8.40;;;2.92;;
65045;SDS011;54657;52.022;5.534;2024-01-30T13:39:33;5.03;;;2.60;;
65045;SDS011;54657;52.022;5.534;2024-01-30T13:41:59;7.28;;;2.40;;
65045;SDS011;54657;52.022;5.534;2024-01-30T13:44:24;4.90;;;2.35;;
65045;SDS011;54657;52.022;5.534;2024-01-30T13:46:50;3.05;;;2.20;;
65045;SDS011;54657;52.022;5.534;2024-01-30T13:49:15;2.60;;;2.10;;
65045;SDS011;54657;52.022;5.534;2024-01-30T13:51:41;4.15;;;2.15;;
65045;SDS011;54657;52.022;5.534;2024-01-30T13:54:07;5.15;;;2.20;;
65045;SDS011;54657;52.022;5.534;2024-01-30T13:56:33;4.45;;;1.88;;
65045;SDS011;54657;52.022;5.534;2024-01-30T13:58:59;3.92;;;1.50;;
65045;SDS011;54657;52.022;5.534;2024-01-30T14:01:26;2.40;;;1.17;;
65045;SDS011;54657;52.022;5.534;2024-01-30T14:03:51;3.55;;;1.05;;
65045;SDS011;54657;52.022;5.534;2024-01-30T14:06:17;3.00;;;0.85;;
65045;SDS011;54657;52.022;5.534;2024-01-30T14:08:43;4.28;;;1.50;;
65045;SDS011;54657;52.022;5.534;2024-01-30T14:11:09;2.50;;;0.68;;
65045;SDS011;54657;52.022;5.534;2024-01-30T14:13:34;3.45;;;0.90;;
65045;SDS011;54657;52.022;5.534;2024-01-30T14:16:00;1.38;;;0.77;;
65045;SDS011;54657;52.022;5.534;2024-01-30T14:18:26;2.78;;;1.10;;
65045;SDS011;54657;52.022;5.534;2024-01-30T14:20:51;1.15;;;1.05;;
65045;SDS011;54657;52.022;5.534;2024-01-30T14:23:17;2.05;;;1.17;;
65045;SDS011;54657;52.022;5.534;2024-01-30T14:25:43;3.35;;;1.48;;
65045;SDS011;54657;52.022;5.534;2024-01-30T14:28:09;3.95;;;1.70;;
65045;SDS011;54657;52.022;5.534;2024-01-30T14:30:35;3.47;;;1.70;;
65045;SDS011;54657;52.022;5.534;2024-01-30T14:33:00;2.08;;;1.35;;
65045;SDS011;54657;52.022;5.534;2024-01-30T14:35:26;3.40;;;1.80;;
65045;SDS011;54657;52.022;5.534;2024-01-30T14:37:52;3.17;;;2.33;;
65045;SDS011;54657;52.022;5.534;2024-01-30T14:40:18;2.97;;;1.92;;
65045;SDS011;54657;52.022;5.534;2024-01-30T14:42:44;3.08;;;2.05;;